East Jordan, MI (49727)

11:58 PM EDT on March 24, 2017 (GMT -0400)
2.1 MI NNW of East Jordan(South Field) | | Change Station

Elev 647 ft 45.19 °N, 85.15 °W | Updated 8 seconds ago

Overcast
Overcast
33.9 °F
Feels Like 34 °F
N
2.0
Wind Variable Wind from North
Gusts 6.0 mph

Today
High -- | Low -- °F
--% Chance of Precip.
Yesterday
High -- | Low -- °F
Precip. -- in
Pressure 30.21 in
Visibility 7.0 miles
Clouds Scattered Clouds 2200 ft
Mostly Cloudy 11000 ft
Windchill 34 °F
Dew Point 34 °F
Humidity 100%
Rainfall 1.31 in
Snow Depth Not available.
7:35 AM 7:58 PM
Waning Crescent, 11% visible
METAR KCVX 250335Z AUTO 04003KT 7SM SCT022 BKN110 01/01 A3021 RMK AO2 T00100010
Pressure 30.21 in
Visibility 7.0 miles
Clouds Scattered Clouds 2200 ft
Mostly Cloudy 11000 ft
Windchill 34 °F
Dew Point 34 °F
Humidity 100%
Rainfall 1.31 in
Snow Depth Not available.
7:35 AM 7:58 PM
Waning Crescent, 11% visible
METAR KCVX 250335Z AUTO 04003KT 7SM SCT022 BKN110 01/01 A3021 RMK AO2 T00100010

Get Severe Weather Alerts

Thanks for signing up!

Be on the lookout for a verification email in your inbox.

You'll start receiving the daily forecast at 8 AM.

×

10-Day Weather Forecast

Almanac

Astronomy

Mar. 24, 2017 Rise Set
Actual Time
Civil Twilight
Nautical Twilight
Astronomical Twilight
Moon
Length of Visible Light
Length of Day
Tomorrow will be .
, % of the Moon is Illuminated

Today's Extremes

State Highs State Lows

Community

WunderPhotos

Upload Photos

1,962,540 photos uploaded!

WunderBlog® & News

Nearby

Air Quality

  Air Quality AQ Index Pollutant
Not available.

Snow Depth

Station Depth Elevation

Earthquake Activity

City Distance Mag. Time & Date
Minimum magnitude displayed is 2.5.

Earthquake Activity

City Distance Mag. Time & Date
Minimum magnitude displayed is 2.5.

Coastal Water Temperatures

Place Temperature

Stations

Nearby Weather Stations

Station Location Temp. Windchill Dew Point Humidity Wind Precip. Elev Updated Type
                   

Watches & Warnings

There are currently no watches in effect.